Time;durP1;ratioP1;P1;durP2;ratioP2;P2;SDS_P1;SDS_P2;PMS_P1;PMS_P2;Temp;Humidity;BMP_temperature;BMP_pressure;BME280_temperature;BME280_humidity;BME280_pressure;Samples;Min_cycle;Max_cycle;Signal;HPM_P1;HPM_P2
2023/06/29 00:00:21;;;;;;;;;;;;;;;19.50;87.34;101552.97;5008361;28;1295;-76
2023/06/29 00:02:47;;;;;;;;;;;;;;;19.45;87.53;101550.00;5004716;28;1352;-76
2023/06/29 00:05:12;;;;;;;;;;;;;;;19.41;87.82;101546.06;5000368;28;1090;-76
2023/06/29 00:07:37;;;;;;;;;;;;;;;19.39;87.95;101550.66;5003634;28;1389;-76
2023/06/29 00:10:03;;;;;;;;;;;;;;;19.40;88.00;101552.31;5007449;28;1534;-75
2023/06/29 00:12:28;;;;;;;;;;;;;;;19.42;87.93;101545.06;5001546;28;1939;-75
2023/06/29 00:14:54;;;;;;;;;;;;;;;19.43;87.82;101544.06;5008616;28;1951;-78
2023/06/29 00:17:20;;;;;;;;;;;;;;;19.42;87.54;101550.31;5003865;28;1146;-75
2023/06/29 00:19:47;;;;;;;;;;;;;;;19.40;87.67;101541.78;5001457;28;1121;-76
2023/06/29 00:22:13;;;;;;;;;;;;;;;19.38;87.45;101549.00;5001363;28;1299;-77
2023/06/29 00:24:42;;;;;;;;;;;;;;;19.38;87.54;101543.75;5009176;28;1299;-77
2023/06/29 00:27:16;;;;;;;;;;;;;;;19.40;87.16;101533.91;5005170;28;1128;-77
2023/06/29 00:29:42;;;;;;;;;;;;;;;19.41;86.89;101532.91;5007489;28;1015;-76
2023/06/29 00:32:08;;;;;;;;;;;;;;;19.43;86.71;101540.63;5002692;28;1424;-76
2023/06/29 00:34:33;;;;;;;;;;;;;;;19.41;86.77;101532.09;5008989;28;2011;-77
2023/06/29 00:36:58;;;;;;;;;;;;;;;19.39;86.96;101529.63;5011421;28;1377;-76
2023/06/29 00:39:24;;;;;;;;;;;;;;;19.38;86.93;101522.69;5006543;28;1354;-75
2023/06/29 00:41:55;;;;;;;;;;;;;;;19.36;86.78;101524.69;5002380;28;1397;-75
2023/06/29 00:44:21;;;;;;;;;;;;;;;19.34;86.92;101524.03;5000461;28;1375;-77
2023/06/29 00:46:47;;;;;;;;;;;;;;;19.31;86.99;101517.28;5004998;28;1278;-76
2023/06/29 00:49:12;;;;;;;;;;;;;;;19.27;87.17;101515.16;5003737;28;1169;-77
2023/06/29 00:51:37;;;;;;;;;;;;;;;19.26;87.39;101510.88;5002483;28;1192;-77
2023/06/29 00:54:03;;;;;;;;;;;;;;;19.26;87.39;101508.25;5006981;28;1891;-76
2023/06/29 00:56:30;;;;;;;;;;;;;;;19.27;87.26;101516.00;4996738;28;1329;-78
2023/06/29 00:58:55;;;;;;;;;;;;;;;19.28;87.26;101501.03;5002716;28;1295;-76
2023/06/29 01:01:20;;;;;;;;;;;;;;;19.29;87.27;101507.94;5002015;28;1341;-75
2023/06/29 01:03:45;;;;;;;;;;;;;;;19.31;86.94;101506.75;5006137;28;1347;-76
2023/06/29 01:06:13;;;;;;;;;;;;;;;19.32;87.20;101497.06;5004461;28;1232;-77
2023/06/29 01:08:42;;;;;;;;;;;;;;;19.30;87.16;101505.13;5000305;28;1586;-76
2023/06/29 01:11:07;;;;;;;;;;;;;;;19.30;86.91;101494.59;5006711;28;1316;-77
2023/06/29 01:13:32;;;;;;;;;;;;;;;19.30;87.05;101493.78;5007541;28;1898;-75
2023/06/29 01:15:59;;;;;;;;;;;;;;;19.29;87.06;101494.78;5003629;28;1488;-77
2023/06/29 01:18:25;;;;;;;;;;;;;;;19.28;87.03;101491.31;5005363;28;1491;-76
2023/06/29 01:20:50;;;;;;;;;;;;;;;19.31;87.20;101496.25;4998633;28;1270;-76
2023/06/29 01:23:25;;;;;;;;;;;;;;;19.31;87.32;101490.16;5000720;28;1508;-77
2023/06/29 01:25:51;;;;;;;;;;;;;;;19.30;87.28;101494.59;5007651;28;1279;-75
2023/06/29 01:28:17;;;;;;;;;;;;;;;19.30;87.66;101488.53;5005081;28;1199;-75
2023/06/29 01:30:49;;;;;;;;;;;;;;;19.28;87.54;101490.50;5002589;28;1317;-77
2023/06/29 01:33:19;;;;;;;;;;;;;;;19.27;87.98;101491.50;5001582;28;1914;-76
2023/06/29 01:35:45;;;;;;;;;;;;;;;19.27;87.52;101494.94;5008919;28;1523;-75
2023/06/29 01:38:13;;;;;;;;;;;;;;;19.30;87.48;101499.84;5003176;28;1386;-75
2023/06/29 01:40:41;;;;;;;;;;;;;;;19.30;87.38;101494.59;5005740;28;1126;-77
2023/06/29 01:43:06;;;;;;;;;;;;;;;19.32;87.19;101497.06;5006285;28;1351;-76
2023/06/29 01:45:31;;;;;;;;;;;;;;;19.31;87.27;101496.25;5006327;28;1616;-76
2023/06/29 01:47:57;;;;;;;;;;;;;;;19.33;87.25;101493.47;5003173;28;1280;-76
2023/06/29 01:50:23;;;;;;;;;;;;;;;19.33;87.08;101488.19;5008754;28;1216;-75
2023/06/29 01:52:48;;;;;;;;;;;;;;;19.32;86.83;101486.53;5003026;28;1292;-75
2023/06/29 01:55:13;;;;;;;;;;;;;;;19.32;86.98;101491.78;5004804;28;1967;-76
2023/06/29 01:57:38;;;;;;;;;;;;;;;19.31;87.01;101484.91;5007631;28;1440;-75
2023/06/29 02:00:04;;;;;;;;;;;;;;;19.30;87.13;101488.53;5006629;28;1256;-75
2023/06/29 02:02:30;;;;;;;;;;;;;;;19.28;86.94;101486.06;5007237;28;1619;-75
2023/06/29 02:04:55;;;;;;;;;;;;;;;19.26;87.05;101482.75;5002527;28;1310;-76
2023/06/29 02:07:20;;;;;;;;;;;;;;;19.25;87.05;101480.31;5005521;28;1286;-77
2023/06/29 02:09:45;;;;;;;;;;;;;;;19.25;87.08;101480.31;5001022;28;1206;-75
2023/06/29 02:12:11;;;;;;;;;;;;;;;19.24;86.98;101474.22;5003892;28;1623;-75
2023/06/29 02:14:36;;;;;;;;;;;;;;;19.23;87.09;101477.84;5007791;28;1895;-75
2023/06/29 02:17:01;;;;;;;;;;;;;;;19.21;87.29;101479.84;5004879;28;1140;-76
2023/06/29 02:19:26;;;;;;;;;;;;;;;19.20;87.07;101478.16;5003316;28;1371;-76
2023/06/29 02:21:51;;;;;;;;;;;;;;;19.19;87.38;101476.53;5005605;28;1267;-75
2023/06/29 02:24:17;;;;;;;;;;;;;;;19.18;87.37;101471.44;5006044;28;1145;-76
2023/06/29 02:26:42;;;;;;;;;;;;;;;19.20;87.60;101474.72;4997703;28;1010;-76
2023/06/29 02:29:07;;;;;;;;;;;;;;;19.18;87.50;101468.81;5006656;28;992;-76
2023/06/29 02:31:32;;;;;;;;;;;;;;;19.16;87.36;101460.28;5001941;28;1322;-75
2023/06/29 02:33:58;;;;;;;;;;;;;;;19.15;87.34;101455.97;4997025;28;1930;-76
2023/06/29 02:36:23;;;;;;;;;;;;;;;19.14;87.53;101454.34;5008304;28;1156;-75
2023/06/29 02:38:48;;;;;;;;;;;;;;;19.12;87.54;101453.69;4999178;28;1132;-75
2023/06/29 02:41:14;;;;;;;;;;;;;;;19.08;87.50;101443.50;5001409;28;1361;-76
2023/06/29 02:43:39;;;;;;;;;;;;;;;19.07;87.65;101441.03;5004588;28;1179;-75
2023/06/29 02:46:04;;;;;;;;;;;;;;;19.06;87.62;101445.47;5003098;28;1229;-76
2023/06/29 02:48:30;;;;;;;;;;;;;;;19.05;87.78;101443.84;4997337;28;1297;-75
2023/06/29 02:50:56;;;;;;;;;;;;;;;19.05;87.83;101443.84;4999760;28;1260;-76
2023/06/29 02:53:21;;;;;;;;;;;;;;;19.04;87.70;101441.38;5003477;28;1894;-76
2023/06/29 02:55:46;;;;;;;;;;;;;;;19.03;87.84;101445.78;5004284;28;1273;-75
2023/06/29 02:58:12;;;;;;;;;;;;;;;19.01;88.00;101439.91;4994409;28;1260;-75
2023/06/29 03:00:37;;;;;;;;;;;;;;;19.01;88.01;101439.91;5001179;28;1593;-76
2023/06/29 03:03:02;;;;;;;;;;;;;;;19.01;88.20;101436.44;5001128;28;1268;-75
2023/06/29 03:05:27;;;;;;;;;;;;;;;19.00;88.14;101440.88;5005354;28;1550;-76
2023/06/29 03:07:53;;;;;;;;;;;;;;;19.01;88.29;101437.25;5005126;28;1772;-75
2023/06/29 03:10:18;;;;;;;;;;;;;;;19.00;88.14;101438.25;5003395;28;1298;-77
2023/06/29 03:12:43;;;;;;;;;;;;;;;19.01;88.33;101437.25;5006545;28;1354;-75
2023/06/29 03:15:08;;;;;;;;;;;;;;;19.00;88.23;101430.38;5008926;28;1895;-75
2023/06/29 03:17:34;;;;;;;;;;;;;;;18.99;88.46;101434.00;5003416;28;1653;-76
2023/06/29 03:19:59;;;;;;;;;;;;;;;19.00;88.60;101430.38;5001781;28;1550;-75
2023/06/29 03:22:27;;;;;;;;;;;;;;;19.00;88.50;101430.38;5008150;28;1178;-76
2023/06/29 03:24:52;;;;;;;;;;;;;;;18.99;88.58;101428.72;5005872;28;1268;-75
2023/06/29 03:27:18;;;;;;;;;;;;;;;18.99;88.51;101433.16;5006473;28;1395;-75
2023/06/29 03:29:43;;;;;;;;;;;;;;;18.99;88.66;101428.72;5005690;28;1514;-75
2023/06/29 03:32:08;;;;;;;;;;;;;;;18.99;88.60;101431.38;5006501;28;1296;-75
2023/06/29 03:34:33;;;;;;;;;;;;;;;18.99;88.57;101423.47;5006099;28;2022;-75
2023/06/29 03:36:59;;;;;;;;;;;;;;;19.00;88.77;101424.28;5003839;28;1550;-75
2023/06/29 03:39:24;;;;;;;;;;;;;;;19.00;88.78;101424.28;5010414;28;1554;-74
2023/06/29 03:41:49;;;;;;;;;;;;;;;19.00;88.73;101413.78;5006123;28;1158;-75
2023/06/29 03:44:14;;;;;;;;;;;;;;;18.98;88.78;101421.84;5002135;28;1565;-75
2023/06/29 03:46:40;;;;;;;;;;;;;;;18.99;88.82;101412.97;5010461;28;1373;-75
2023/06/29 03:49:05;;;;;;;;;;;;;;;19.00;88.79;101414.59;4998888;28;1349;-75
2023/06/29 03:51:30;;;;;;;;;;;;;;;18.98;88.94;101419.22;5002937;28;1146;-75
2023/06/29 03:53:55;;;;;;;;;;;;;;;18.98;89.22;101411.31;5008264;28;1914;-75
2023/06/29 03:56:21;;;;;;;;;;;;;;;18.98;89.14;101416.56;5009915;28;1319;-76
2023/06/29 03:58:46;;;;;;;;;;;;;;;18.98;89.10;101416.56;5008135;28;1298;-75
2023/06/29 04:01:11;;;;;;;;;;;;;;;18.96;89.17;101408.03;5004883;28;1651;-76
2023/06/29 04:03:36;;;;;;;;;;;;;;;18.97;89.01;101414.91;5004426;28;1224;-75
2023/06/29 04:06:01;;;;;;;;;;;;;;;18.96;89.05;101402.75;5007619;28;1867;-75
2023/06/29 04:08:27;;;;;;;;;;;;;;;18.98;89.08;101413.94;5000839;28;2269;-76
2023/06/29 04:10:53;;;;;;;;;;;;;;;18.97;89.28;101414.91;5002599;28;1761;-75
2023/06/29 04:13:18;;;;;;;;;;;;;;;18.96;89.61;101410.66;5001670;28;1939;-76
2023/06/29 04:15:43;;;;;;;;;;;;;;;18.95;89.49;101401.13;5006104;28;1532;-76
2023/06/29 04:18:08;;;;;;;;;;;;;;;18.94;89.36;101399.50;4999799;28;1009;-75
2023/06/29 04:20:36;;;;;;;;;;;;;;;18.97;89.59;101404.41;4996695;28;1156;-77
2023/06/29 04:23:01;;;;;;;;;;;;;;;18.98;89.58;101398.19;5002572;28;1413;-77
2023/06/29 04:25:27;;;;;;;;;;;;;;;19.00;89.42;101393.56;5005758;28;1179;-77
2023/06/29 04:27:52;;;;;;;;;;;;;;;18.99;89.69;101391.09;5003063;28;1068;-76
2023/06/29 04:30:17;;;;;;;;;;;;;;;18.99;90.37;101396.38;5007561;28;1153;-75
2023/06/29 04:32:43;;;;;;;;;;;;;;;18.99;89.85;101389.28;5006260;28;1634;-75
2023/06/29 04:35:09;;;;;;;;;;;;;;;19.00;89.89;101388.31;5010266;28;1887;-76
2023/06/29 04:37:41;;;;;;;;;;;;;;;19.01;89.94;101387.31;5003686;28;1208;-76
2023/06/29 04:40:10;;;;;;;;;;;;;;;19.05;89.82;101386.00;4998220;28;1259;-75
2023/06/29 04:42:46;;;;;;;;;;;;;;;19.05;90.07;101386.00;5007316;28;979;-76
2023/06/29 04:45:12;;;;;;;;;;;;;;;19.07;89.99;101388.44;5005312;28;1476;-76
2023/06/29 04:47:40;;;;;;;;;;;;;;;19.07;89.76;101373.50;5006714;28;1098;-75
2023/06/29 04:50:06;;;;;;;;;;;;;;;19.09;89.57;101381.22;5008288;28;1236;-75
2023/06/29 04:52:36;;;;;;;;;;;;;;;19.10;90.18;101381.06;5003981;28;1283;-76
2023/06/29 04:55:02;;;;;;;;;;;;;;;19.10;89.62;101373.19;5002829;28;1965;-76
2023/06/29 04:57:27;;;;;;;;;;;;;;;19.11;89.71;101374.00;5003952;28;1106;-76
2023/06/29 04:59:52;;;;;;;;;;;;;;;19.12;89.62;101375.63;5004888;28;1204;-76
2023/06/29 05:02:17;;;;;;;;;;;;;;;19.15;89.52;101374.47;4998897;28;1292;-75
2023/06/29 05:04:42;;;;;;;;;;;;;;;19.15;89.50;101374.47;5001072;28;1489;-75
2023/06/29 05:07:07;;;;;;;;;;;;;;;19.15;89.59;101379.72;5000137;28;1194;-76
2023/06/29 05:09:33;;;;;;;;;;;;;;;19.16;89.65;101378.75;5006525;28;1511;-76
2023/06/29 05:11:59;;;;;;;;;;;;;;;19.15;89.70;101374.47;5000219;28;1737;-75
2023/06/29 05:14:24;;;;;;;;;;;;;;;19.15;89.69;101377.09;5003894;28;1902;-75
2023/06/29 05:16:49;;;;;;;;;;;;;;;19.16;89.49;101376.13;5010105;28;1421;-76
2023/06/29 05:19:15;;;;;;;;;;;;;;;19.17;89.45;101372.50;4999729;28;1162;-77
2023/06/29 05:21:40;;;;;;;;;;;;;;;19.18;89.48;101379.41;5001185;28;1411;-75
2023/06/29 05:24:06;;;;;;;;;;;;;;;19.18;89.62;101379.41;5004684;28;1816;-76
2023/06/29 05:26:31;;;;;;;;;;;;;;;19.19;89.48;101373.97;5004910;28;1202;-75
2023/06/29 05:28:57;;;;;;;;;;;;;;;19.19;89.95;101370.53;5015143;28;1184;-75
2023/06/29 05:31:22;;;;;;;;;;;;;;;19.21;89.98;101368.53;5004683;28;1441;-75
2023/06/29 05:33:47;;;;;;;;;;;;;;;19.22;89.85;101370.19;5015661;28;1890;-77
2023/06/29 05:36:12;;;;;;;;;;;;;;;19.23;89.54;101371.84;5003620;28;1408;-75
2023/06/29 05:38:37;;;;;;;;;;;;;;;19.24;89.79;101373.47;5004430;28;1688;-75
2023/06/29 05:41:03;;;;;;;;;;;;;;;19.26;90.04;101366.22;5000518;28;1287;-76
2023/06/29 05:43:28;;;;;;;;;;;;;;;19.27;89.73;101373.16;5002733;28;1498;-75
2023/06/29 05:45:53;;;;;;;;;;;;;;;19.27;90.06;101373.16;5000166;28;1097;-76
2023/06/29 05:48:18;;;;;;;;;;;;;;;19.29;89.97;101368.53;5005665;28;1388;-79
2023/06/29 05:50:43;;;;;;;;;;;;;;;19.29;89.86;101366.72;4999581;28;1306;-75
2023/06/29 05:53:09;;;;;;;;;;;;;;;19.32;89.81;101365.53;4997639;28;1957;-76
2023/06/29 05:55:34;;;;;;;;;;;;;;;19.33;89.78;101361.94;5005085;28;1279;-75
2023/06/29 05:57:59;;;;;;;;;;;;;;;19.35;89.60;101366.03;5006015;28;1247;-76
2023/06/29 06:00:25;;;;;;;;;;;;;;;19.36;89.55;101366.84;4999448;28;1369;-76
2023/06/29 06:02:50;;;;;;;;;;;;;;;19.34;89.62;101364.41;5005789;28;1326;-78
2023/06/29 06:05:16;;;;;;;;;;;;;;;19.33;89.75;101368.03;4996274;28;1401;-76
2023/06/29 06:07:41;;;;;;;;;;;;;;;19.34;89.51;101369.66;5005202;28;1491;-76
2023/06/29 06:10:06;;;;;;;;;;;;;;;19.34;89.99;101358.31;4996972;28;1228;-76
2023/06/29 06:12:32;;;;;;;;;;;;;;;19.35;89.70;101370.47;5005680;28;1220;-78
2023/06/29 06:14:57;;;;;;;;;;;;;;;19.35;89.65;101367.84;4999381;28;1968;-76
2023/06/29 06:17:22;;;;;;;;;;;;;;;19.36;90.00;101374.75;5000587;28;1334;-76
2023/06/29 06:19:47;;;;;;;;;;;;;;;19.40;89.75;101368.16;5003162;28;1420;-76
2023/06/29 06:22:13;;;;;;;;;;;;;;;19.43;90.00;101373.06;5001109;28;1148;-76
2023/06/29 06:24:38;;;;;;;;;;;;;;;19.46;90.02;101366.66;5002362;28;1190;-76
2023/06/29 06:27:03;;;;;;;;;;;;;;;19.48;89.66;101365.50;5005277;28;1342;-76
2023/06/29 06:29:28;;;;;;;;;;;;;;;19.50;89.75;101368.78;5004038;28;1070;-77
2023/06/29 06:31:54;;;;;;;;;;;;;;;19.53;89.56;101363.16;5007795;28;938;-78
2023/06/29 06:34:19;;;;;;;;;;;;;;;19.55;89.44;101376.97;5002329;28;1867;-76
2023/06/29 06:36:46;;;;;;;;;;;;;;;19.56;89.31;101367.28;5002054;28;1585;-76
2023/06/29 06:39:11;;;;;;;;;;;;;;;19.58;89.27;101368.78;5003931;28;1093;-76
2023/06/29 06:41:36;;;;;;;;;;;;;;;19.61;89.33;101364.97;5005340;28;1193;-76
2023/06/29 06:44:02;;;;;;;;;;;;;;;19.63;89.28;101369.09;5004862;28;1298;-76
2023/06/29 06:46:27;;;;;;;;;;;;;;;19.68;89.39;101365.13;5006333;28;1145;-77
2023/06/29 06:48:52;;;;;;;;;;;;;;;19.72;89.17;101358.50;5003544;28;1200;-77
2023/06/29 06:51:17;;;;;;;;;;;;;;;19.75;88.72;101361.63;4992354;28;1212;-76
2023/06/29 06:53:42;;;;;;;;;;;;;;;19.77;88.70;101364.09;4997479;28;1981;-76
2023/06/29 06:56:07;;;;;;;;;;;;;;;19.78;88.62;101368.34;4999840;28;1245;-76
2023/06/29 06:58:33;;;;;;;;;;;;;;;19.80;88.53;101363.75;4999195;28;1213;-76
2023/06/29 07:00:59;;;;;;;;;;;;;;;19.85;88.61;101362.25;5002514;28;1629;-76
2023/06/29 07:03:25;;;;;;;;;;;;;;;19.90;88.15;101353.84;5005316;28;1357;-77
2023/06/29 07:05:53;;;;;;;;;;;;;;;19.94;88.04;101365.63;5003610;28;1229;-76
2023/06/29 07:08:18;;;;;;;;;;;;;;;19.98;87.85;101364.31;5004209;28;1194;-77
2023/06/29 07:10:43;;;;;;;;;;;;;;;20.01;87.82;101366.56;5002219;28;1102;-77
2023/06/29 07:13:08;;;;;;;;;;;;;;;20.03;87.50;101359.34;4996646;28;1969;-76
2023/06/29 07:15:34;;;;;;;;;;;;;;;20.05;87.45;101370.50;4999324;28;1107;-76
2023/06/29 07:17:59;;;;;;;;;;;;;;;20.09;87.24;101371.81;5000584;28;1041;-76
2023/06/29 07:20:24;;;;;;;;;;;;;;;20.15;87.47;101367.66;4996772;28;1072;-76
2023/06/29 07:22:50;;;;;;;;;;;;;;;20.20;87.24;101367.16;5001076;28;1457;-77
2023/06/29 07:25:16;;;;;;;;;;;;;;;20.26;86.93;101363.81;5003908;28;1307;-77
2023/06/29 07:27:42;;;;;;;;;;;;;;;20.30;86.90;101359.81;5003071;28;1291;-76
2023/06/29 07:30:08;;;;;;;;;;;;;;;20.33;85.93;101349.75;5004059;28;1369;-77
2023/06/29 07:32:33;;;;;;;;;;;;;;;20.38;86.11;101354.50;4999083;28;1340;-77
2023/06/29 07:34:58;;;;;;;;;;;;;;;20.41;85.35;101356.75;5005259;28;1929;-77
2023/06/29 07:37:24;;;;;;;;;;;;;;;20.45;85.60;101347.50;5000045;28;1050;-77
2023/06/29 07:39:49;;;;;;;;;;;;;;;20.45;84.70;101358.06;4998254;28;1451;-77
2023/06/29 07:42:14;;;;;;;;;;;;;;;20.48;84.94;101357.75;5003707;28;1276;-77
2023/06/29 07:44:39;;;;;;;;;;;;;;;20.50;83.86;101350.47;5005430;28;1164;-77
2023/06/29 07:47:05;;;;;;;;;;;;;;;20.54;84.10;101357.03;4992542;28;1174;-76
2023/06/29 07:49:30;;;;;;;;;;;;;;;20.56;84.01;101354.22;5002705;28;1102;-76
2023/06/29 07:51:55;;;;;;;;;;;;;;;20.61;84.29;101352.69;4995628;28;1262;-77
2023/06/29 07:54:20;;;;;;;;;;;;;;;20.67;84.14;101351.97;5002572;28;1902;-77
2023/06/29 07:56:46;;;;;;;;;;;;;;;20.71;83.71;101356.91;5000627;28;1117;-77
2023/06/29 07:59:11;;;;;;;;;;;;;;;20.76;83.58;101355.38;5002057;28;1069;-76
2023/06/29 08:01:39;;;;;;;;;;;;;;;20.84;83.24;101362.38;5005874;28;1306;-76
2023/06/29 08:04:05;;;;;;;;;;;;;;;20.91;83.33;101347.47;5009724;28;1189;-77
2023/06/29 08:06:33;;;;;;;;;;;;;;;20.98;83.00;101340.47;5009263;28;1112;-77
2023/06/29 08:08:58;;;;;;;;;;;;;;;21.04;82.88;101350.28;5011946;28;1090;-77
2023/06/29 08:11:24;;;;;;;;;;;;;;;21.12;82.34;101339.66;5008472;28;1569;-77
2023/06/29 08:13:49;;;;;;;;;;;;;;;21.24;82.36;101349.75;5002063;28;1965;-77
2023/06/29 08:16:15;;;;;;;;;;;;;;;21.32;81.60;101339.13;5017295;28;1204;-77
2023/06/29 08:18:40;;;;;;;;;;;;;;;21.29;81.34;101336.84;5005085;28;1175;-77
2023/06/29 08:21:06;;;;;;;;;;;;;;;21.32;81.10;101339.94;5002959;28;1648;-77
2023/06/29 08:23:32;;;;;;;;;;;;;;;21.41;80.59;101343.31;5003154;28;990;-77
2023/06/29 08:25:57;;;;;;;;;;;;;;;21.42;80.48;101342.31;5006057;28;1065;-77
2023/06/29 08:28:22;;;;;;;;;;;;;;;21.48;80.13;101349.50;5001394;28;1063;-77
2023/06/29 08:30:48;;;;;;;;;;;;;;;21.51;79.60;101337.75;5007648;28;1393;-77
2023/06/29 08:33:13;;;;;;;;;;;;;;;21.59;79.64;101341.09;5006260;28;1882;-76
2023/06/29 08:35:38;;;;;;;;;;;;;;;21.70;79.38;101342.44;4999470;28;1103;-77
2023/06/29 08:38:03;;;;;;;;;;;;;;;21.79;78.81;101340.50;5004136;28;1266;-77
2023/06/29 08:40:31;;;;;;;;;;;;;;;21.86;78.64;101341.41;5006458;28;1341;-77
2023/06/29 08:42:56;;;;;;;;;;;;;;;21.98;78.95;101345.19;5008923;28;1578;-77
2023/06/29 08:45:21;;;;;;;;;;;;;;;22.04;77.85;101339.16;5010007;28;1094;-77
2023/06/29 08:47:49;;;;;;;;;;;;;;;22.11;77.85;101345.34;5002771;28;1074;-77
2023/06/29 08:50:14;;;;;;;;;;;;;;;22.19;77.05;101337.31;5008410;28;1326;-77
2023/06/29 08:52:40;;;;;;;;;;;;;;;22.22;76.73;101350.16;5004160;28;1028;-77
2023/06/29 08:55:06;;;;;;;;;;;;;;;22.27;75.78;101345.13;5005650;28;1981;-77
2023/06/29 08:57:35;;;;;;;;;;;;;;;22.33;74.66;101337.44;5006175;28;1075;-77
2023/06/29 09:00:01;;;;;;;;;;;;;;;22.38;75.40;101335.03;5002659;28;1305;-77
2023/06/29 09:02:27;;;;;;;;;;;;;;;22.45;75.10;101335.91;5005057;28;1523;-77
2023/06/29 09:04:52;;;;;;;;;;;;;;;22.50;73.72;101344.91;5004923;28;1247;-77
2023/06/29 09:07:17;;;;;;;;;;;;;;;22.46;73.42;101345.47;4996633;28;997;-77
2023/06/29 09:09:43;;;;;;;;;;;;;;;22.40;73.62;101333.00;4999805;28;1319;-77
2023/06/29 09:12:10;;;;;;;;;;;;;;;22.46;74.26;101342.81;4994072;28;1090;-77
2023/06/29 09:14:42;;;;;;;;;;;;;;;22.52;73.16;101342.06;5003291;28;1961;-77
2023/06/29 09:17:12;;;;;;;;;;;;;;;22.55;72.93;101333.75;5005218;28;1114;-78
2023/06/29 09:19:37;;;;;;;;;;;;;;;22.61;73.58;101330.34;5005994;28;1552;-78
2023/06/29 09:22:03;;;;;;;;;;;;;;;22.74;72.81;101330.44;5000579;28;1092;-77
2023/06/29 09:24:30;;;;;;;;;;;;;;;22.87;72.89;101326.25;5002107;28;1362;-77
2023/06/29 09:26:55;;;;;;;;;;;;;;;22.98;72.74;101323.09;5007856;28;1241;-77
2023/06/29 09:29:20;;;;;;;;;;;;;;;23.08;71.97;101326.22;4999133;28;1413;-78
2023/06/29 09:31:56;;;;;;;;;;;;;;;23.09;71.63;101327.84;5003164;28;1479;-78
2023/06/29 09:34:22;;;;;;;;;;;;;;;23.10;71.37;101326.00;5001592;28;1898;-77
2023/06/29 09:36:48;;;;;;;;;;;;;;;23.12;71.16;101316.06;5005403;28;1510;-77
2023/06/29 09:39:13;;;;;;;;;;;;;;;23.16;70.88;101323.38;5000338;28;1477;-77
2023/06/29 09:41:44;;;;;;;;;;;;;;;23.27;70.08;101330.78;5004504;28;1253;-77
2023/06/29 09:44:10;;;;;;;;;;;;;;;23.30;70.33;101330.41;5002254;28;1228;-77
2023/06/29 09:46:40;;;;;;;;;;;;;;;23.37;69.93;101329.59;5001931;28;1345;-78
2023/06/29 09:49:06;;;;;;;;;;;;;;;23.42;68.88;101332.47;4997396;28;1373;-77
2023/06/29 09:51:31;;;;;;;;;;;;;;;23.47;67.52;101335.34;5003905;28;1221;-77
2023/06/29 09:54:00;;;;;;;;;;;;;;;23.50;67.76;101334.94;5003947;28;1898;-78
2023/06/29 09:56:26;;;;;;;;;;;;;;;23.52;68.26;101330.28;5004355;28;1221;-78
2023/06/29 09:58:52;;;;;;;;;;;;;;;23.50;68.45;101322.53;5000470;28;1510;-77
2023/06/29 10:01:18;;;;;;;;;;;;;;;23.51;66.38;101325.97;5009796;28;1417;-77
2023/06/29 10:03:43;;;;;;;;;;;;;;;23.54;67.23;101326.41;5005927;28;1503;-77
2023/06/29 10:06:11;;;;;;;;;;;;;;;23.59;67.23;101323.19;5005488;28;1448;-77
2023/06/29 10:08:39;;;;;;;;;;;;;;;23.63;67.42;101324.44;5003540;28;1418;-77
2023/06/29 10:11:05;;;;;;;;;;;;;;;23.68;67.49;101326.47;5004722;28;1118;-78
2023/06/29 10:13:35;;;;;;;;;;;;;;;23.71;67.13;101329.56;5002244;28;1957;-77
2023/06/29 10:16:02;;;;;;;;;;;;;;;23.63;65.89;101327.09;5003177;28;1262;-78
2023/06/29 10:18:29;;;;;;;;;;;;;;;23.53;65.74;101323.97;5003151;28;1549;-77
2023/06/29 10:20:55;;;;;;;;;;;;;;;23.47;66.02;101319.47;5005686;28;1257;-77
2023/06/29 10:23:21;;;;;;;;;;;;;;;23.44;65.61;101318.03;5006205;28;1188;-77
2023/06/29 10:25:51;;;;;;;;;;;;;;;23.39;66.26;101319.63;5006472;28;1298;-77
2023/06/29 10:28:17;;;;;;;;;;;;;;;23.39;66.15;101332.84;5003782;28;1095;-77
2023/06/29 10:30:43;;;;;;;;;;;;;;;23.39;66.08;101327.56;5004239;28;1106;-77
2023/06/29 10:33:09;;;;;;;;;;;;;;;23.44;66.08;101327.78;5007045;28;1010;-77
2023/06/29 10:35:34;;;;;;;;;;;;;;;23.49;65.61;101322.72;5001437;28;1878;-77
2023/06/29 10:38:00;;;;;;;;;;;;;;;23.49;65.02;101322.72;5004498;28;1051;-77
2023/06/29 10:40:26;;;;;;;;;;;;;;;23.48;65.25;101326.41;5002640;28;1145;-77
2023/06/29 10:43:00;;;;;;;;;;;;;;;23.48;65.22;101327.22;5005283;28;1263;-77
2023/06/29 10:45:25;;;;;;;;;;;;;;;23.49;64.90;101322.72;5002964;28;1417;-77
2023/06/29 10:47:53;;;;;;;;;;;;;;;23.53;64.91;101318.69;5000286;28;1440;-78
2023/06/29 10:50:20;;;;;;;;;;;;;;;23.59;65.11;101317.88;4997220;28;1274;-78
2023/06/29 10:52:47;;;;;;;;;;;;;;;23.62;65.02;101322.78;5001748;28;1529;-77
2023/06/29 10:55:13;;;;;;;;;;;;;;;23.68;64.72;101321.19;5001949;28;1969;-77
2023/06/29 10:57:39;;;;;;;;;;;;;;;23.70;65.13;101317.34;5005570;28;1643;-77
2023/06/29 11:00:05;;;;;;;;;;;;;;;23.78;64.74;101316.31;5004474;28;1220;-77
2023/06/29 11:02:30;;;;;;;;;;;;;;;23.84;64.81;101316.34;5000170;28;1641;-77
2023/06/29 11:04:56;;;;;;;;;;;;;;;23.89;64.44;101312.28;5001187;28;1295;-77
2023/06/29 11:07:21;;;;;;;;;;;;;;;23.92;64.35;101318.00;5004926;28;1369;-77
2023/06/29 11:09:46;;;;;;;;;;;;;;;23.88;64.25;101310.66;5002356;28;1119;-77
2023/06/29 11:12:11;;;;;;;;;;;;;;;23.89;63.73;101318.38;4995807;28;1301;-77
2023/06/29 11:14:38;;;;;;;;;;;;;;;23.89;63.77;101317.56;5000961;28;1902;-77
2023/06/29 11:17:06;;;;;;;;;;;;;;;23.92;64.41;101311.88;5007212;28;1306;-77
2023/06/29 11:19:31;;;;;;;;;;;;;;;23.97;64.41;101304.97;4997645;28;1071;-77
2023/06/29 11:21:58;;;;;;;;;;;;;;;24.03;63.75;101303.34;5006110;28;1259;-78
2023/06/29 11:24:23;;;;;;;;;;;;;;;24.07;63.71;101309.84;5003019;28;1034;-78
2023/06/29 11:26:48;;;;;;;;;;;;;;;24.04;63.93;101305.78;5008802;28;1531;-77
2023/06/29 11:29:14;;;;;;;;;;;;;;;24.10;64.58;101302.31;4997978;28;1352;-77
2023/06/29 11:31:39;;;;;;;;;;;;;;;24.19;64.03;101308.22;4996659;28;1479;-77
2023/06/29 11:34:04;;;;;;;;;;;;;;;24.28;64.29;101299.06;5000592;28;1965;-77
2023/06/29 11:36:30;;;;;;;;;;;;;;;24.32;62.96;101300.31;5002925;28;1337;-77
2023/06/29 11:39:02;;;;;;;;;;;;;;;24.32;61.18;101297.66;5001416;28;1410;-78
2023/06/29 11:41:29;;;;;;;;;;;;;;;24.26;62.10;101301.13;5011241;28;1260;-77
2023/06/29 11:43:54;;;;;;;;;;;;;;;24.23;61.97;101298.88;5006903;28;1142;-78
2023/06/29 11:46:20;;;;;;;;;;;;;;;24.19;61.70;101297.63;5007572;28;1324;-77
2023/06/29 11:48:54;;;;;;;;;;;;;;;24.16;62.75;101303.34;5001513;28;1459;-78
2023/06/29 11:51:19;;;;;;;;;;;;;;;24.19;62.70;101297.63;5008065;28;1158;-77
2023/06/29 11:53:44;;;;;;;;;;;;;;;24.22;62.52;101291.94;5010192;28;1957;-77
2023/06/29 11:56:22;;;;;;;;;;;;;;;24.20;62.60;101293.97;5012043;28;1274;-77
2023/06/29 11:58:47;;;;;;;;;;;;;;;24.22;62.61;101291.94;5003856;28;1280;-77
2023/06/29 12:01:14;;;;;;;;;;;;;;;24.22;62.30;101289.28;5003824;28;1281;-77
2023/06/29 12:03:39;;;;;;;;;;;;;;;24.22;62.13;101285.81;5002240;28;1315;-78
2023/06/29 12:06:05;;;;;;;;;;;;;;;24.27;62.32;101283.38;5005367;28;1216;-78
2023/06/29 12:08:36;;;;;;;;;;;;;;;24.32;62.72;101283.59;5008882;28;1503;-77
2023/06/29 12:11:03;;;;;;;;;;;;;;;24.44;61.99;101281.16;5007815;28;1245;-78
2023/06/29 12:13:28;;;;;;;;;;;;;;;24.43;62.09;101276.84;5002211;28;1906;-77
2023/06/29 12:15:54;;;;;;;;;;;;;;;24.41;62.48;101276.25;5010704;28;1514;-77
2023/06/29 12:18:19;;;;;;;;;;;;;;;24.47;62.80;101275.44;5005600;28;1515;-77
2023/06/29 12:20:46;;;;;;;;;;;;;;;24.54;62.73;101278.88;5003131;28;1146;-78
2023/06/29 12:23:12;;;;;;;;;;;;;;;24.59;61.89;101271.13;5005194;28;1092;-78
2023/06/29 12:25:41;;;;;;;;;;;;;;;24.56;61.88;101266.25;5006711;28;1502;-78
2023/06/29 12:28:06;;;;;;;;;;;;;;;24.56;62.28;101261.75;5009317;28;1067;-78
2023/06/29 12:30:32;;;;;;;;;;;;;;;24.62;62.30;101265.41;5007180;28;1415;-78
2023/06/29 12:32:57;;;;;;;;;;;;;;;24.63;62.86;101251.13;5007766;28;1009;-78
2023/06/29 12:35:22;;;;;;;;;;;;;;;24.74;62.66;101263.75;5004628;28;1898;-78
2023/06/29 12:37:48;;;;;;;;;;;;;;;24.82;62.64;101260.88;5011978;28;1267;-77
2023/06/29 12:40:15;;;;;;;;;;;;;;;24.92;61.38;101260.44;5001964;28;1004;-78